sensor_id;sensor_type;location;lat;lon;timestamp;P1;durP1;ratioP1;P2;durP2;ratioP2
36715;SDS011;22699;51.034;3.730;2022-10-16T00:02:22;1.90;;;0.80;;
36715;SDS011;22699;51.034;3.730;2022-10-16T00:04:48;3.80;;;1.13;;
36715;SDS011;22699;51.034;3.730;2022-10-16T00:07:14;1.83;;;0.93;;
36715;SDS011;22699;51.034;3.730;2022-10-16T00:09:39;1.95;;;1.10;;
36715;SDS011;22699;51.034;3.730;2022-10-16T00:12:05;3.20;;;0.70;;
36715;SDS011;22699;51.034;3.730;2022-10-16T00:14:32;1.88;;;0.90;;
36715;SDS011;22699;51.034;3.730;2022-10-16T00:16:57;3.05;;;0.80;;
36715;SDS011;22699;51.034;3.730;2022-10-16T00:19:25;2.88;;;0.90;;
36715;SDS011;22699;51.034;3.730;2022-10-16T00:21:50;2.60;;;0.98;;
36715;SDS011;22699;51.034;3.730;2022-10-16T00:24:17;1.50;;;1.00;;
36715;SDS011;22699;51.034;3.730;2022-10-16T00:26:44;3.08;;;1.42;;
36715;SDS011;22699;51.034;3.730;2022-10-16T00:29:10;1.63;;;1.05;;
36715;SDS011;22699;51.034;3.730;2022-10-16T00:31:36;1.70;;;1.05;;
36715;SDS011;22699;51.034;3.730;2022-10-16T00:34:02;1.70;;;0.98;;
36715;SDS011;22699;51.034;3.730;2022-10-16T00:36:27;1.55;;;1.10;;
36715;SDS011;22699;51.034;3.730;2022-10-16T00:38:54;2.45;;;1.00;;
36715;SDS011;22699;51.034;3.730;2022-10-16T00:41:23;2.15;;;1.00;;
36715;SDS011;22699;51.034;3.730;2022-10-16T00:43:53;2.22;;;0.85;;
36715;SDS011;22699;51.034;3.730;2022-10-16T00:46:55;1.70;;;1.00;;
36715;SDS011;22699;51.034;3.730;2022-10-16T00:49:16;2.20;;;0.90;;
36715;SDS011;22699;51.034;3.730;2022-10-16T00:51:51;1.58;;;0.98;;
36715;SDS011;22699;51.034;3.730;2022-10-16T00:54:26;2.50;;;0.80;;
36715;SDS011;22699;51.034;3.730;2022-10-16T00:56:54;1.60;;;1.02;;
36715;SDS011;22699;51.034;3.730;2022-10-16T00:59:32;3.03;;;0.80;;
36715;SDS011;22699;51.034;3.730;2022-10-16T01:04:50;1.27;;;0.85;;
36715;SDS011;22699;51.034;3.730;2022-10-16T01:10:16;2.38;;;0.60;;
36715;SDS011;22699;51.034;3.730;2022-10-16T01:13:06;1.63;;;0.98;;
36715;SDS011;22699;51.034;3.730;2022-10-16T01:20:45;1.50;;;0.73;;
36715;SDS011;22699;51.034;3.730;2022-10-16T01:23:27;2.72;;;1.00;;
36715;SDS011;22699;51.034;3.730;2022-10-16T01:26:15;2.42;;;0.80;;
36715;SDS011;22699;51.034;3.730;2022-10-16T01:28:56;2.08;;;0.80;;
36715;SDS011;22699;51.034;3.730;2022-10-16T01:31:29;1.77;;;0.90;;
36715;SDS011;22699;51.034;3.730;2022-10-16T01:34:10;0.95;;;0.77;;
36715;SDS011;22699;51.034;3.730;2022-10-16T01:36:47;1.35;;;0.73;;
36715;SDS011;22699;51.034;3.730;2022-10-16T01:39:24;2.83;;;0.90;;
36715;SDS011;22699;51.034;3.730;2022-10-16T01:41:58;2.13;;;0.90;;
36715;SDS011;22699;51.034;3.730;2022-10-16T01:44:32;1.33;;;0.70;;
36715;SDS011;22699;51.034;3.730;2022-10-16T01:47:01;2.50;;;1.07;;
36715;SDS011;22699;51.034;3.730;2022-10-16T01:49:32;2.53;;;1.00;;
36715;SDS011;22699;51.034;3.730;2022-10-16T01:52:03;0.85;;;0.70;;
36715;SDS011;22699;51.034;3.730;2022-10-16T01:54:34;3.10;;;1.02;;
36715;SDS011;22699;51.034;3.730;2022-10-16T01:57:02;2.88;;;0.80;;
36715;SDS011;22699;51.034;3.730;2022-10-16T01:59:31;2.13;;;1.10;;
36715;SDS011;22699;51.034;3.730;2022-10-16T02:02:04;2.38;;;0.80;;
36715;SDS011;22699;51.034;3.730;2022-10-16T02:04:39;2.78;;;0.82;;
36715;SDS011;22699;51.034;3.730;2022-10-16T02:07:08;1.50;;;0.80;;
36715;SDS011;22699;51.034;3.730;2022-10-16T02:09:34;3.75;;;1.20;;
36715;SDS011;22699;51.034;3.730;2022-10-16T02:12:04;5.00;;;1.00;;
36715;SDS011;22699;51.034;3.730;2022-10-16T02:14:37;1.60;;;1.00;;
36715;SDS011;22699;51.034;3.730;2022-10-16T02:17:13;1.70;;;0.90;;
36715;SDS011;22699;51.034;3.730;2022-10-16T02:19:44;3.08;;;0.90;;
36715;SDS011;22699;51.034;3.730;2022-10-16T02:22:15;2.65;;;1.20;;
36715;SDS011;22699;51.034;3.730;2022-10-16T02:25:25;2.83;;;0.90;;
36715;SDS011;22699;51.034;3.730;2022-10-16T02:30:56;4.80;;;0.90;;
36715;SDS011;22699;51.034;3.730;2022-10-16T02:33:26;4.22;;;0.90;;
36715;SDS011;22699;51.034;3.730;2022-10-16T02:35:54;2.08;;;0.90;;
36715;SDS011;22699;51.034;3.730;2022-10-16T02:38:22;3.58;;;1.30;;
36715;SDS011;22699;51.034;3.730;2022-10-16T02:40:49;4.00;;;1.45;;
36715;SDS011;22699;51.034;3.730;2022-10-16T02:43:16;1.92;;;1.00;;
36715;SDS011;22699;51.034;3.730;2022-10-16T02:45:41;1.80;;;0.77;;
36715;SDS011;22699;51.034;3.730;2022-10-16T02:48:07;2.65;;;0.90;;
36715;SDS011;22699;51.034;3.730;2022-10-16T02:50:33;2.88;;;0.98;;
36715;SDS011;22699;51.034;3.730;2022-10-16T02:52:58;1.40;;;0.82;;
36715;SDS011;22699;51.034;3.730;2022-10-16T02:55:25;2.05;;;1.00;;
36715;SDS011;22699;51.034;3.730;2022-10-16T02:57:52;3.58;;;1.05;;
36715;SDS011;22699;51.034;3.730;2022-10-16T03:00:18;1.20;;;0.80;;
36715;SDS011;22699;51.034;3.730;2022-10-16T03:02:45;4.40;;;1.17;;
36715;SDS011;22699;51.034;3.730;2022-10-16T03:05:11;4.18;;;1.30;;
36715;SDS011;22699;51.034;3.730;2022-10-16T03:07:37;1.65;;;0.90;;
36715;SDS011;22699;51.034;3.730;2022-10-16T03:10:03;2.60;;;0.93;;
36715;SDS011;22699;51.034;3.730;2022-10-16T03:12:30;2.65;;;1.20;;
36715;SDS011;22699;51.034;3.730;2022-10-16T03:14:57;6.93;;;0.90;;
36715;SDS011;22699;51.034;3.730;2022-10-16T03:17:24;2.25;;;0.90;;
36715;SDS011;22699;51.034;3.730;2022-10-16T03:19:51;1.98;;;1.05;;
36715;SDS011;22699;51.034;3.730;2022-10-16T03:22:16;1.85;;;1.23;;
36715;SDS011;22699;51.034;3.730;2022-10-16T03:24:43;2.03;;;1.00;;
36715;SDS011;22699;51.034;3.730;2022-10-16T03:27:08;3.33;;;1.17;;
36715;SDS011;22699;51.034;3.730;2022-10-16T03:29:34;3.25;;;1.10;;
36715;SDS011;22699;51.034;3.730;2022-10-16T03:32:00;2.13;;;1.10;;
36715;SDS011;22699;51.034;3.730;2022-10-16T03:34:28;2.28;;;0.80;;
36715;SDS011;22699;51.034;3.730;2022-10-16T03:36:54;2.75;;;1.10;;
36715;SDS011;22699;51.034;3.730;2022-10-16T03:39:21;7.88;;;1.95;;
36715;SDS011;22699;51.034;3.730;2022-10-16T03:41:47;2.53;;;1.20;;
36715;SDS011;22699;51.034;3.730;2022-10-16T03:44:13;3.38;;;1.23;;
36715;SDS011;22699;51.034;3.730;2022-10-16T03:46:38;2.47;;;1.10;;
36715;SDS011;22699;51.034;3.730;2022-10-16T03:49:04;3.42;;;1.25;;
36715;SDS011;22699;51.034;3.730;2022-10-16T03:51:30;3.55;;;1.23;;
36715;SDS011;22699;51.034;3.730;2022-10-16T03:53:55;2.38;;;1.42;;
36715;SDS011;22699;51.034;3.730;2022-10-16T03:56:21;4.97;;;1.33;;
36715;SDS011;22699;51.034;3.730;2022-10-16T03:58:47;2.88;;;1.80;;
36715;SDS011;22699;51.034;3.730;2022-10-16T04:01:13;3.42;;;1.45;;
36715;SDS011;22699;51.034;3.730;2022-10-16T04:03:39;4.57;;;1.23;;
36715;SDS011;22699;51.034;3.730;2022-10-16T04:06:05;2.38;;;1.13;;
36715;SDS011;22699;51.034;3.730;2022-10-16T04:08:31;4.25;;;1.35;;
36715;SDS011;22699;51.034;3.730;2022-10-16T04:11:00;5.65;;;1.48;;
36715;SDS011;22699;51.034;3.730;2022-10-16T04:13:26;3.53;;;1.42;;
36715;SDS011;22699;51.034;3.730;2022-10-16T04:15:51;4.32;;;1.60;;
36715;SDS011;22699;51.034;3.730;2022-10-16T04:18:17;5.57;;;1.50;;
36715;SDS011;22699;51.034;3.730;2022-10-16T04:20:43;3.25;;;1.52;;
36715;SDS011;22699;51.034;3.730;2022-10-16T04:23:08;5.32;;;1.83;;
36715;SDS011;22699;51.034;3.730;2022-10-16T04:25:34;4.30;;;1.70;;
36715;SDS011;22699;51.034;3.730;2022-10-16T04:27:59;5.95;;;2.00;;
36715;SDS011;22699;51.034;3.730;2022-10-16T04:30:25;3.03;;;1.52;;
36715;SDS011;22699;51.034;3.730;2022-10-16T04:32:51;4.28;;;1.33;;
36715;SDS011;22699;51.034;3.730;2022-10-16T04:35:19;5.22;;;1.60;;
36715;SDS011;22699;51.034;3.730;2022-10-16T04:37:45;17.25;;;1.92;;
36715;SDS011;22699;51.034;3.730;2022-10-16T04:40:12;5.72;;;1.73;;
36715;SDS011;22699;51.034;3.730;2022-10-16T04:42:39;3.85;;;1.60;;
36715;SDS011;22699;51.034;3.730;2022-10-16T04:45:05;2.65;;;1.60;;
36715;SDS011;22699;51.034;3.730;2022-10-16T04:47:31;5.80;;;1.80;;
36715;SDS011;22699;51.034;3.730;2022-10-16T04:49:59;4.95;;;1.40;;
36715;SDS011;22699;51.034;3.730;2022-10-16T04:52:26;4.07;;;1.42;;
36715;SDS011;22699;51.034;3.730;2022-10-16T04:54:51;5.50;;;1.83;;
36715;SDS011;22699;51.034;3.730;2022-10-16T04:57:18;4.63;;;1.85;;
36715;SDS011;22699;51.034;3.730;2022-10-16T04:59:44;4.70;;;1.90;;
36715;SDS011;22699;51.034;3.730;2022-10-16T05:02:10;5.10;;;1.50;;
36715;SDS011;22699;51.034;3.730;2022-10-16T05:04:35;3.42;;;1.50;;
36715;SDS011;22699;51.034;3.730;2022-10-16T05:07:01;3.70;;;1.75;;
36715;SDS011;22699;51.034;3.730;2022-10-16T05:09:29;2.20;;;1.30;;
36715;SDS011;22699;51.034;3.730;2022-10-16T05:11:55;4.57;;;1.50;;
36715;SDS011;22699;51.034;3.730;2022-10-16T05:14:21;4.53;;;1.83;;
36715;SDS011;22699;51.034;3.730;2022-10-16T05:16:46;3.78;;;1.63;;
36715;SDS011;22699;51.034;3.730;2022-10-16T05:19:13;5.72;;;1.60;;
36715;SDS011;22699;51.034;3.730;2022-10-16T05:21:39;3.17;;;1.30;;
36715;SDS011;22699;51.034;3.730;2022-10-16T05:24:04;5.30;;;1.70;;
36715;SDS011;22699;51.034;3.730;2022-10-16T05:26:30;4.47;;;1.98;;
36715;SDS011;22699;51.034;3.730;2022-10-16T05:28:55;3.72;;;1.50;;
36715;SDS011;22699;51.034;3.730;2022-10-16T05:31:22;3.35;;;1.27;;
36715;SDS011;22699;51.034;3.730;2022-10-16T05:33:48;5.43;;;1.48;;
36715;SDS011;22699;51.034;3.730;2022-10-16T05:36:15;3.03;;;1.40;;
36715;SDS011;22699;51.034;3.730;2022-10-16T05:38:43;3.63;;;1.70;;
36715;SDS011;22699;51.034;3.730;2022-10-16T05:41:10;2.08;;;1.33;;
36715;SDS011;22699;51.034;3.730;2022-10-16T05:43:35;2.25;;;1.05;;
36715;SDS011;22699;51.034;3.730;2022-10-16T05:46:03;2.97;;;1.02;;
36715;SDS011;22699;51.034;3.730;2022-10-16T05:48:33;4.43;;;1.35;;
36715;SDS011;22699;51.034;3.730;2022-10-16T05:51:02;4.15;;;1.63;;
36715;SDS011;22699;51.034;3.730;2022-10-16T05:53:32;3.78;;;1.60;;
36715;SDS011;22699;51.034;3.730;2022-10-16T05:55:59;2.72;;;1.20;;
36715;SDS011;22699;51.034;3.730;2022-10-16T05:58:28;5.53;;;1.60;;
36715;SDS011;22699;51.034;3.730;2022-10-16T06:03:24;3.78;;;1.25;;
36715;SDS011;22699;51.034;3.730;2022-10-16T06:05:50;6.85;;;1.80;;
36715;SDS011;22699;51.034;3.730;2022-10-16T06:08:16;3.25;;;1.40;;
36715;SDS011;22699;51.034;3.730;2022-10-16T06:10:45;3.72;;;1.45;;
36715;SDS011;22699;51.034;3.730;2022-10-16T06:13:12;3.17;;;1.58;;
36715;SDS011;22699;51.034;3.730;2022-10-16T06:15:39;3.83;;;1.80;;
36715;SDS011;22699;51.034;3.730;2022-10-16T06:18:08;2.97;;;1.40;;
36715;SDS011;22699;51.034;3.730;2022-10-16T06:20:34;5.13;;;1.80;;
36715;SDS011;22699;51.034;3.730;2022-10-16T06:23:00;3.28;;;1.60;;
36715;SDS011;22699;51.034;3.730;2022-10-16T06:25:26;4.65;;;2.00;;
36715;SDS011;22699;51.034;3.730;2022-10-16T06:27:52;4.32;;;2.10;;
36715;SDS011;22699;51.034;3.730;2022-10-16T06:30:17;2.13;;;1.45;;
36715;SDS011;22699;51.034;3.730;2022-10-16T06:32:43;4.63;;;1.45;;
36715;SDS011;22699;51.034;3.730;2022-10-16T06:35:09;3.03;;;1.50;;
36715;SDS011;22699;51.034;3.730;2022-10-16T06:37:34;4.15;;;1.48;;
36715;SDS011;22699;51.034;3.730;2022-10-16T06:40:01;5.38;;;1.63;;
36715;SDS011;22699;51.034;3.730;2022-10-16T06:42:29;6.47;;;1.67;;
36715;SDS011;22699;51.034;3.730;2022-10-16T06:44:55;4.43;;;1.73;;
36715;SDS011;22699;51.034;3.730;2022-10-16T06:47:22;4.38;;;1.63;;
36715;SDS011;22699;51.034;3.730;2022-10-16T06:49:54;5.75;;;1.52;;
36715;SDS011;22699;51.034;3.730;2022-10-16T06:52:23;7.85;;;1.63;;
36715;SDS011;22699;51.034;3.730;2022-10-16T06:54:49;4.15;;;1.70;;
36715;SDS011;22699;51.034;3.730;2022-10-16T06:57:20;4.68;;;1.45;;
36715;SDS011;22699;51.034;3.730;2022-10-16T06:59:47;4.28;;;1.75;;
36715;SDS011;22699;51.034;3.730;2022-10-16T07:02:16;5.63;;;1.90;;
36715;SDS011;22699;51.034;3.730;2022-10-16T07:04:42;2.95;;;1.73;;
36715;SDS011;22699;51.034;3.730;2022-10-16T07:07:09;2.65;;;1.48;;
36715;SDS011;22699;51.034;3.730;2022-10-16T07:09:34;3.05;;;1.85;;
36715;SDS011;22699;51.034;3.730;2022-10-16T07:12:00;3.75;;;1.50;;
36715;SDS011;22699;51.034;3.730;2022-10-16T07:14:26;5.68;;;1.77;;
36715;SDS011;22699;51.034;3.730;2022-10-16T07:16:54;6.32;;;1.77;;
36715;SDS011;22699;51.034;3.730;2022-10-16T07:19:21;5.80;;;1.67;;
36715;SDS011;22699;51.034;3.730;2022-10-16T07:21:49;5.90;;;1.50;;
36715;SDS011;22699;51.034;3.730;2022-10-16T07:24:15;3.53;;;1.40;;
36715;SDS011;22699;51.034;3.730;2022-10-16T07:26:42;3.22;;;1.33;;
36715;SDS011;22699;51.034;3.730;2022-10-16T07:29:13;3.25;;;1.40;;
36715;SDS011;22699;51.034;3.730;2022-10-16T07:31:40;7.40;;;2.15;;
36715;SDS011;22699;51.034;3.730;2022-10-16T07:34:09;4.90;;;1.52;;
36715;SDS011;22699;51.034;3.730;2022-10-16T07:36:39;6.07;;;1.50;;
36715;SDS011;22699;51.034;3.730;2022-10-16T07:39:05;4.78;;;1.30;;
36715;SDS011;22699;51.034;3.730;2022-10-16T07:41:32;3.72;;;1.50;;
36715;SDS011;22699;51.034;3.730;2022-10-16T07:46:29;3.95;;;1.38;;
36715;SDS011;22699;51.034;3.730;2022-10-16T07:48:56;5.00;;;1.13;;
36715;SDS011;22699;51.034;3.730;2022-10-16T07:51:24;2.03;;;1.00;;
36715;SDS011;22699;51.034;3.730;2022-10-16T07:53:51;2.78;;;1.35;;
36715;SDS011;22699;51.034;3.730;2022-10-16T07:56:19;2.80;;;1.65;;
36715;SDS011;22699;51.034;3.730;2022-10-16T07:58:47;2.70;;;1.00;;
36715;SDS011;22699;51.034;3.730;2022-10-16T08:01:15;4.30;;;0.90;;
36715;SDS011;22699;51.034;3.730;2022-10-16T08:06:11;3.58;;;1.10;;
36715;SDS011;22699;51.034;3.730;2022-10-16T08:08:36;4.60;;;1.33;;
36715;SDS011;22699;51.034;3.730;2022-10-16T08:11:02;2.45;;;1.33;;
36715;SDS011;22699;51.034;3.730;2022-10-16T08:13:31;5.55;;;1.05;;
36715;SDS011;22699;51.034;3.730;2022-10-16T08:15:57;3.28;;;0.95;;
36715;SDS011;22699;51.034;3.730;2022-10-16T08:18:22;4.00;;;0.90;;
36715;SDS011;22699;51.034;3.730;2022-10-16T08:20:54;5.43;;;1.00;;
36715;SDS011;22699;51.034;3.730;2022-10-16T08:23:24;2.97;;;0.75;;
36715;SDS011;22699;51.034;3.730;2022-10-16T08:25:54;5.15;;;0.90;;
36715;SDS011;22699;51.034;3.730;2022-10-16T08:28:23;2.08;;;0.95;;
36715;SDS011;22699;51.034;3.730;2022-10-16T08:30:48;3.28;;;0.82;;
36715;SDS011;22699;51.034;3.730;2022-10-16T08:33:14;3.50;;;0.95;;
36715;SDS011;22699;51.034;3.730;2022-10-16T08:35:40;5.20;;;1.10;;
36715;SDS011;22699;51.034;3.730;2022-10-16T08:38:06;4.25;;;1.10;;
36715;SDS011;22699;51.034;3.730;2022-10-16T08:40:34;2.58;;;0.80;;
36715;SDS011;22699;51.034;3.730;2022-10-16T08:48:43;4.07;;;0.90;;
36715;SDS011;22699;51.034;3.730;2022-10-16T08:51:18;5.72;;;1.00;;
36715;SDS011;22699;51.034;3.730;2022-10-16T08:54:04;3.83;;;1.00;;
36715;SDS011;22699;51.034;3.730;2022-10-16T08:56:35;3.15;;;0.98;;
36715;SDS011;22699;51.034;3.730;2022-10-16T08:59:00;5.80;;;1.50;;
36715;SDS011;22699;51.034;3.730;2022-10-16T09:01:35;5.13;;;1.30;;
36715;SDS011;22699;51.034;3.730;2022-10-16T09:20:49;5.03;;;0.70;;
36715;SDS011;22699;51.034;3.730;2022-10-16T09:25:55;3.13;;;0.98;;
36715;SDS011;22699;51.034;3.730;2022-10-16T09:28:22;3.67;;;1.10;;
36715;SDS011;22699;51.034;3.730;2022-10-16T09:30:47;6.60;;;1.35;;
36715;SDS011;22699;51.034;3.730;2022-10-16T09:33:17;6.38;;;1.27;;
36715;SDS011;22699;51.034;3.730;2022-10-16T09:35:50;8.68;;;1.52;;
36715;SDS011;22699;51.034;3.730;2022-10-16T09:38:25;7.25;;;1.40;;
36715;SDS011;22699;51.034;3.730;2022-10-16T09:40:53;5.60;;;1.33;;
36715;SDS011;22699;51.034;3.730;2022-10-16T09:43:25;7.97;;;1.98;;
36715;SDS011;22699;51.034;3.730;2022-10-16T09:46:06;4.78;;;1.20;;
36715;SDS011;22699;51.034;3.730;2022-10-16T09:48:38;5.47;;;0.98;;
36715;SDS011;22699;51.034;3.730;2022-10-16T09:56:35;4.35;;;1.52;;
36715;SDS011;22699;51.034;3.730;2022-10-16T09:59:25;8.45;;;2.10;;
36715;SDS011;22699;51.034;3.730;2022-10-16T10:01:54;9.00;;;1.67;;
36715;SDS011;22699;51.034;3.730;2022-10-16T10:06:58;7.15;;;1.08;;
36715;SDS011;22699;51.034;3.730;2022-10-16T10:09:25;7.85;;;1.95;;
36715;SDS011;22699;51.034;3.730;2022-10-16T10:12:06;8.88;;;1.80;;
36715;SDS011;22699;51.034;3.730;2022-10-16T10:14:58;3.78;;;1.23;;
36715;SDS011;22699;51.034;3.730;2022-10-16T10:17:31;6.30;;;1.70;;
36715;SDS011;22699;51.034;3.730;2022-10-16T10:19:59;9.65;;;1.60;;
36715;SDS011;22699;51.034;3.730;2022-10-16T10:30:39;8.00;;;1.70;;
36715;SDS011;22699;51.034;3.730;2022-10-16T10:33:24;9.13;;;1.55;;
36715;SDS011;22699;51.034;3.730;2022-10-16T10:50:38;5.57;;;1.35;;
36715;SDS011;22699;51.034;3.730;2022-10-16T10:56:08;12.30;;;1.65;;
36715;SDS011;22699;51.034;3.730;2022-10-16T11:02:10;15.32;;;2.38;;
36715;SDS011;22699;51.034;3.730;2022-10-16T11:08:13;5.88;;;1.40;;
36715;SDS011;22699;51.034;3.730;2022-10-16T11:10:50;7.80;;;1.45;;
36715;SDS011;22699;51.034;3.730;2022-10-16T11:13:31;7.63;;;1.13;;
36715;SDS011;22699;51.034;3.730;2022-10-16T11:16:07;6.80;;;1.15;;
36715;SDS011;22699;51.034;3.730;2022-10-16T11:21:49;7.32;;;1.30;;
36715;SDS011;22699;51.034;3.730;2022-10-16T11:27:08;8.57;;;1.50;;
36715;SDS011;22699;51.034;3.730;2022-10-16T11:29:43;5.75;;;1.08;;
36715;SDS011;22699;51.034;3.730;2022-10-16T11:32:22;6.53;;;1.60;;
36715;SDS011;22699;51.034;3.730;2022-10-16T11:34:56;9.50;;;1.15;;
36715;SDS011;22699;51.034;3.730;2022-10-16T11:37:31;6.75;;;1.10;;
36715;SDS011;22699;51.034;3.730;2022-10-16T11:43:11;7.40;;;1.50;;
36715;SDS011;22699;51.034;3.730;2022-10-16T11:45:57;3.97;;;1.00;;
36715;SDS011;22699;51.034;3.730;2022-10-16T11:51:38;4.65;;;1.10;;
36715;SDS011;22699;51.034;3.730;2022-10-16T11:57:18;6.82;;;1.40;;
36715;SDS011;22699;51.034;3.730;2022-10-16T12:02:49;4.55;;;0.80;;
36715;SDS011;22699;51.034;3.730;2022-10-16T12:05:22;4.22;;;1.25;;
36715;SDS011;22699;51.034;3.730;2022-10-16T12:08:11;5.85;;;1.80;;
36715;SDS011;22699;51.034;3.730;2022-10-16T12:10:39;4.75;;;1.13;;
36715;SDS011;22699;51.034;3.730;2022-10-16T12:19:03;3.88;;;0.90;;
36715;SDS011;22699;51.034;3.730;2022-10-16T12:21:45;6.60;;;1.42;;
36715;SDS011;22699;51.034;3.730;2022-10-16T12:24:19;7.35;;;1.38;;
36715;SDS011;22699;51.034;3.730;2022-10-16T12:27:01;3.38;;;0.90;;
36715;SDS011;22699;51.034;3.730;2022-10-16T12:29:39;4.20;;;1.00;;
36715;SDS011;22699;51.034;3.730;2022-10-16T12:34:57;3.90;;;0.80;;
36715;SDS011;22699;51.034;3.730;2022-10-16T12:37:31;6.65;;;1.50;;
36715;SDS011;22699;51.034;3.730;2022-10-16T12:40:15;2.50;;;0.68;;
36715;SDS011;22699;51.034;3.730;2022-10-16T12:42:52;3.08;;;0.88;;
36715;SDS011;22699;51.034;3.730;2022-10-16T12:45:31;8.25;;;1.65;;
36715;SDS011;22699;51.034;3.730;2022-10-16T12:48:17;7.38;;;1.50;;
36715;SDS011;22699;51.034;3.730;2022-10-16T12:53:22;4.30;;;0.98;;
36715;SDS011;22699;51.034;3.730;2022-10-16T13:06:51;5.32;;;1.20;;
36715;SDS011;22699;51.034;3.730;2022-10-16T13:15:05;3.42;;;0.82;;
36715;SDS011;22699;51.034;3.730;2022-10-16T13:17:56;4.30;;;1.10;;
36715;SDS011;22699;51.034;3.730;2022-10-16T13:26:09;7.47;;;1.80;;
36715;SDS011;22699;51.034;3.730;2022-10-16T13:28:45;5.18;;;1.02;;
36715;SDS011;22699;51.034;3.730;2022-10-16T13:31:18;5.95;;;0.93;;
36715;SDS011;22699;51.034;3.730;2022-10-16T13:33:48;4.95;;;1.33;;
36715;SDS011;22699;51.034;3.730;2022-10-16T13:36:29;5.60;;;0.80;;
36715;SDS011;22699;51.034;3.730;2022-10-16T13:39:13;3.60;;;0.90;;
36715;SDS011;22699;51.034;3.730;2022-10-16T13:41:45;3.53;;;0.60;;
36715;SDS011;22699;51.034;3.730;2022-10-16T13:44:23;4.72;;;0.80;;
36715;SDS011;22699;51.034;3.730;2022-10-16T13:46:58;5.43;;;0.75;;
36715;SDS011;22699;51.034;3.730;2022-10-16T13:49:27;3.10;;;0.80;;
36715;SDS011;22699;51.034;3.730;2022-10-16T13:51:57;2.42;;;0.70;;
36715;SDS011;22699;51.034;3.730;2022-10-16T13:54:24;3.08;;;1.02;;
36715;SDS011;22699;51.034;3.730;2022-10-16T13:56:50;2.30;;;0.70;;
36715;SDS011;22699;51.034;3.730;2022-10-16T13:59:26;4.18;;;1.02;;
36715;SDS011;22699;51.034;3.730;2022-10-16T14:01:59;3.08;;;0.82;;
36715;SDS011;22699;51.034;3.730;2022-10-16T14:04:31;4.75;;;0.75;;
36715;SDS011;22699;51.034;3.730;2022-10-16T14:06:58;5.60;;;1.10;;
36715;SDS011;22699;51.034;3.730;2022-10-16T14:09:28;4.20;;;1.15;;
36715;SDS011;22699;51.034;3.730;2022-10-16T14:12:01;3.20;;;0.98;;
36715;SDS011;22699;51.034;3.730;2022-10-16T14:14:50;3.92;;;0.90;;
36715;SDS011;22699;51.034;3.730;2022-10-16T14:17:26;2.15;;;0.70;;
36715;SDS011;22699;51.034;3.730;2022-10-16T14:19:54;3.80;;;0.82;;
36715;SDS011;22699;51.034;3.730;2022-10-16T14:22:25;1.85;;;0.80;;
36715;SDS011;22699;51.034;3.730;2022-10-16T14:24:57;4.40;;;0.75;;
36715;SDS011;22699;51.034;3.730;2022-10-16T14:27:31;3.35;;;1.00;;
36715;SDS011;22699;51.034;3.730;2022-10-16T14:35:32;1.42;;;0.80;;
36715;SDS011;22699;51.034;3.730;2022-10-16T14:37:58;1.65;;;0.50;;
36715;SDS011;22699;51.034;3.730;2022-10-16T14:40:26;1.45;;;0.70;;
36715;SDS011;22699;51.034;3.730;2022-10-16T14:42:57;5.65;;;1.00;;
36715;SDS011;22699;51.034;3.730;2022-10-16T14:45:24;1.88;;;0.80;;
36715;SDS011;22699;51.034;3.730;2022-10-16T14:48:00;3.22;;;0.80;;
36715;SDS011;22699;51.034;3.730;2022-10-16T14:50:29;3.55;;;0.68;;
36715;SDS011;22699;51.034;3.730;2022-10-16T14:52:55;0.95;;;0.65;;
36715;SDS011;22699;51.034;3.730;2022-10-16T14:55:21;3.33;;;0.70;;
36715;SDS011;22699;51.034;3.730;2022-10-16T14:57:46;1.48;;;0.43;;
36715;SDS011;22699;51.034;3.730;2022-10-16T15:02:43;2.60;;;0.60;;
36715;SDS011;22699;51.034;3.730;2022-10-16T15:07:46;3.20;;;0.70;;
36715;SDS011;22699;51.034;3.730;2022-10-16T15:10:13;3.53;;;0.55;;
36715;SDS011;22699;51.034;3.730;2022-10-16T15:12:40;2.05;;;0.70;;
36715;SDS011;22699;51.034;3.730;2022-10-16T15:17:54;2.80;;;0.82;;
36715;SDS011;22699;51.034;3.730;2022-10-16T15:20:25;4.22;;;0.65;;
36715;SDS011;22699;51.034;3.730;2022-10-16T15:22:55;2.67;;;0.60;;
36715;SDS011;22699;51.034;3.730;2022-10-16T15:27:59;2.50;;;0.60;;
36715;SDS011;22699;51.034;3.730;2022-10-16T15:30:26;7.80;;;1.10;;
36715;SDS011;22699;51.034;3.730;2022-10-16T15:32:52;6.57;;;1.63;;
36715;SDS011;22699;51.034;3.730;2022-10-16T15:35:19;5.72;;;1.17;;
36715;SDS011;22699;51.034;3.730;2022-10-16T15:37:46;4.95;;;1.23;;
36715;SDS011;22699;51.034;3.730;2022-10-16T15:40:16;5.45;;;1.33;;
36715;SDS011;22699;51.034;3.730;2022-10-16T15:42:45;5.15;;;1.33;;
36715;SDS011;22699;51.034;3.730;2022-10-16T15:45:12;6.03;;;1.13;;
36715;SDS011;22699;51.034;3.730;2022-10-16T15:47:41;3.80;;;1.08;;
36715;SDS011;22699;51.034;3.730;2022-10-16T15:50:09;3.47;;;1.25;;
36715;SDS011;22699;51.034;3.730;2022-10-16T15:52:36;4.35;;;1.15;;
36715;SDS011;22699;51.034;3.730;2022-10-16T15:55:05;3.75;;;1.23;;
36715;SDS011;22699;51.034;3.730;2022-10-16T15:57:34;3.33;;;1.10;;
36715;SDS011;22699;51.034;3.730;2022-10-16T16:00:10;1.90;;;0.75;;
36715;SDS011;22699;51.034;3.730;2022-10-16T16:02:40;2.50;;;1.00;;
36715;SDS011;22699;51.034;3.730;2022-10-16T16:05:08;5.47;;;1.05;;
36715;SDS011;22699;51.034;3.730;2022-10-16T16:07:36;3.75;;;1.15;;
36715;SDS011;22699;51.034;3.730;2022-10-16T16:10:07;2.83;;;1.08;;
36715;SDS011;22699;51.034;3.730;2022-10-16T16:12:36;1.95;;;0.90;;
36715;SDS011;22699;51.034;3.730;2022-10-16T16:15:02;2.40;;;1.30;;
36715;SDS011;22699;51.034;3.730;2022-10-16T16:17:35;5.00;;;1.40;;
36715;SDS011;22699;51.034;3.730;2022-10-16T16:22:30;5.38;;;1.15;;
36715;SDS011;22699;51.034;3.730;2022-10-16T16:24:56;3.88;;;1.33;;
36715;SDS011;22699;51.034;3.730;2022-10-16T16:27:22;2.25;;;1.25;;
36715;SDS011;22699;51.034;3.730;2022-10-16T16:29:49;5.65;;;1.27;;
36715;SDS011;22699;51.034;3.730;2022-10-16T16:32:15;4.38;;;1.95;;
36715;SDS011;22699;51.034;3.730;2022-10-16T16:34:42;5.20;;;3.05;;
36715;SDS011;22699;51.034;3.730;2022-10-16T16:37:08;5.45;;;2.67;;
36715;SDS011;22699;51.034;3.730;2022-10-16T16:39:34;6.72;;;1.98;;
36715;SDS011;22699;51.034;3.730;2022-10-16T16:42:00;3.42;;;1.50;;
36715;SDS011;22699;51.034;3.730;2022-10-16T16:44:27;4.03;;;1.40;;
36715;SDS011;22699;51.034;3.730;2022-10-16T16:46:54;2.70;;;1.02;;
36715;SDS011;22699;51.034;3.730;2022-10-16T16:49:20;3.97;;;1.65;;
36715;SDS011;22699;51.034;3.730;2022-10-16T16:51:47;3.20;;;1.88;;
36715;SDS011;22699;51.034;3.730;2022-10-16T16:54:13;4.40;;;1.88;;
36715;SDS011;22699;51.034;3.730;2022-10-16T16:56:41;3.15;;;1.88;;
36715;SDS011;22699;51.034;3.730;2022-10-16T16:59:12;4.47;;;2.20;;
36715;SDS011;22699;51.034;3.730;2022-10-16T17:01:38;2.50;;;1.35;;
36715;SDS011;22699;51.034;3.730;2022-10-16T17:04:06;5.38;;;1.42;;
36715;SDS011;22699;51.034;3.730;2022-10-16T17:06:32;5.85;;;2.08;;
36715;SDS011;22699;51.034;3.730;2022-10-16T17:08:58;3.30;;;1.55;;
36715;SDS011;22699;51.034;3.730;2022-10-16T17:11:26;5.93;;;2.00;;
36715;SDS011;22699;51.034;3.730;2022-10-16T17:13:54;3.58;;;1.85;;
36715;SDS011;22699;51.034;3.730;2022-10-16T17:16:24;4.70;;;1.73;;
36715;SDS011;22699;51.034;3.730;2022-10-16T17:18:52;7.20;;;2.50;;
36715;SDS011;22699;51.034;3.730;2022-10-16T17:21:18;4.72;;;2.00;;
36715;SDS011;22699;51.034;3.730;2022-10-16T17:23:44;7.68;;;2.00;;
36715;SDS011;22699;51.034;3.730;2022-10-16T17:26:14;5.60;;;2.58;;
36715;SDS011;22699;51.034;3.730;2022-10-16T17:28:41;2.67;;;1.88;;
36715;SDS011;22699;51.034;3.730;2022-10-16T17:31:15;5.78;;;2.25;;
36715;SDS011;22699;51.034;3.730;2022-10-16T17:33:42;5.38;;;2.67;;
36715;SDS011;22699;51.034;3.730;2022-10-16T17:36:09;6.72;;;2.97;;
36715;SDS011;22699;51.034;3.730;2022-10-16T17:38:45;6.78;;;3.58;;
36715;SDS011;22699;51.034;3.730;2022-10-16T17:43:44;7.10;;;3.13;;